Time;durP1;ratioP1;P1;durP2;ratioP2;P2;SDS_P1;SDS_P2;PMS_P1;PMS_P2;Temp;Humidity;BMP_temperature;BMP_pressure;BME280_temperature;BME280_humidity;BME280_pressure;Samples;Min_cycle;Max_cycle;Signal;HPM_P1;HPM_P2
2022/01/02 00:01:11;;;;;;;;;;;;;;;;;;;;;
2022/01/02 00:05:04;;;;;;;;;;;;;;;;;;;;;
2022/01/02 00:08:41;;;;;;;;;;;;;;;;;;;;;
2022/01/02 00:12:39;;;;;;;2.12;1.30;;;;;;;12.21;52.17;100899.86;1779183;109;34840;-92
2022/01/02 00:34:45;;;;;;;;;;;;;;;;;;;;;
2022/01/02 01:03:02;;;;;;;;;;;;;;;;;;;;;
2022/01/02 01:18:51;;;;;;;;;;;;;;;;;;;;;
2022/01/02 01:22:49;;;;;;;2.00;1.17;;;;;;;11.93;52.80;100863.87;;;;
2022/01/02 01:33:33;;;;;;;;;;;;;;;;;;;;;
2022/01/02 01:41:49;;;;;;;1.72;1.60;;;;;;;11.85;52.89;100850.17;1726379;113;25923;-92
2022/01/02 02:02:39;;;;;;;2.37;1.17;;;;;;;11.76;52.98;100809.85;1781726;107;26089;-92
2022/01/02 02:22:39;;;;;;;;;;;;;;;;;;;;;
2022/01/02 02:30:16;;;;;;;2.37;2.05;;;;;;;11.63;53.15;100771.63;1717002;113;25854;-92
2022/01/02 02:39:22;;;;;;;2.83;1.80;;;;;;;11.57;53.22;100758.86;1695159;112;26042;-92
2022/01/02 02:55:53;;;;;;;;;;;;;;;;;;;;;
2022/01/02 02:59:36;;;;;;;2.65;2.25;;;;;;;11.51;53.38;100757.43;1738821;111;25923;-92
2022/01/02 03:03:16;;;;;;;2.40;1.40;;;;;;;11.52;53.42;100757.00;1736814;112;25875;-90
2022/01/02 03:11:57;;;;;;;2.12;1.92;;;;;;;11.51;53.46;100747.41;1754249;110;26413;-93
2022/01/02 03:22:06;;;;;;;;;;;;;;;;;;;;;
2022/01/02 03:33:52;;;;;;;3.40;2.20;;;;;;;11.44;53.65;100688.02;2130629;91;25815;-91
2022/01/02 03:37:49;;;;;;;;;;;;;;;;;;;;;
2022/01/02 03:41:50;;;;;;;;;;;;;;;;;;;;;
2022/01/02 04:28:54;;;;;;;;;;;;;;;;;;;;;
2022/01/02 04:36:19;;;;;;;3.85;2.12;;;;;;;11.18;54.08;100585.61;1755798;111;25927;-94
2022/01/02 04:40:02;;;;;;;2.87;2.20;;;;;;;11.16;54.08;100569.90;1775104;109;26245;-93
2022/01/02 04:43:31;;;;;;;2.95;2.25;;;;;;;11.17;54.11;100557.73;1767995;110;25969;-91
2022/01/02 04:47:21;;;;;;;3.15;2.15;;;;;;;11.14;54.13;100545.52;1729709;111;25993;-92
2022/01/02 04:51:53;;;;;;;;;;;;;;;;;;;;;
2022/01/02 04:55:40;;;;;;;5.87;2.20;;;;;;;11.13;54.11;100515.45;1761330;108;26488;-92
2022/01/02 05:04:41;;;;;;;3.50;2.52;;;;;;;11.09;54.15;100506.67;1823986;106;26776;-92
2022/01/02 05:14:43;;;;;;;2.85;2.27;;;;;;;11.06;54.22;100502.69;1842048;106;25880;-92
2022/01/02 05:18:25;;;;;;;5.05;2.42;;;;;;;11.05;54.26;100513.98;1808609;106;26057;-91
2022/01/02 05:26:35;;;;;;;4.85;2.75;;;;;;;11.04;54.33;100507.01;1776221;109;25882;-90
2022/01/02 05:31:16;;;;;;;3.42;2.70;;;;;;;11.06;54.38;100510.08;1770706;110;26063;-90
2022/01/02 05:35:02;;;;;;;5.87;2.65;;;;;;;11.05;54.37;100486.16;1759743;111;25949;-89
2022/01/02 05:38:54;;;;;;;;;;;;;;;;;;;;;
2022/01/02 05:51:10;;;;;;;;;;;;;;;;;;;;;
2022/01/02 05:58:45;;;;;;;4.25;3.10;;;;;;;11.03;54.60;100433.05;1783723;108;25975;-90
2022/01/02 06:02:11;;;;;;;4.08;3.27;;;;;;;11.03;54.63;100408.69;1731575;114;25924;-92
2022/01/02 06:22:53;;;;;;;;;;;;;;;;;;;;;
2022/01/02 06:46:17;;;;;;;;;;;;;;;;;;;;;
2022/01/02 06:50:43;;;;;;;7.03;4.53;;;;;;;10.95;55.29;100354.19;1681320;115;25902;-91
2022/01/02 06:54:12;;;;;;;5.87;4.87;;;;;;;10.94;55.36;100350.70;1699617;113;25903;-89
2022/01/02 06:58:06;;;;;;;6.53;4.92;;;;;;;10.94;55.41;100340.27;1690851;109;25879;-91
2022/01/02 07:02:31;;;;;;;;;;;;;;;;;;;;;
2022/01/02 07:05:53;;;;;;;;;;;;;;;;;;;;;
2022/01/02 07:10:41;;;;;;;;;;;;;;;;;;;;;
2022/01/02 07:29:15;;;;;;;;;;;;;;;;;;;;;
2022/01/02 07:46:11;;;;;;;8.43;7.03;;;;;;;11.08;55.91;100281.86;1916128;103;25898;-89
2022/01/02 07:49:42;;;;;;;10.98;7.72;;;;;;;11.09;55.93;100271.44;1920242;103;25758;-89
2022/01/02 07:53:39;;;;;;;8.00;7.17;;;;;;;11.12;55.96;100271.92;1918973;102;26131;-91
2022/01/02 07:57:20;;;;;;;;;;;;;;;;;;;;;
2022/01/02 08:00:41;;;;;;;10.43;7.37;;;;;;;11.14;56.05;100244.15;1867540;105;25757;-91
2022/01/02 08:04:21;;;;;;;13.62;8.18;;;;;;;11.15;56.07;100232.86;1867221;101;25829;-90
2022/01/02 08:08:42;;;;;;;;;;;;;;;;;;;;;
2022/01/02 08:16:11;;;;;;;;;;;;;;;;;;;;;
2022/01/02 08:19:43;;;;;;;13.48;8.43;;;;;;;11.25;56.19;100214.34;1863925;104;25823;-90
2022/01/02 08:23:22;;;;;;;11.00;7.80;;;;;;;11.28;56.21;100215.27;1868399;104;25899;-94
2022/01/02 08:27:26;;;;;;;9.80;7.60;;;;;;;11.31;56.23;100219.67;1840529;104;25902;-91
2022/01/02 08:35:31;;;;;;;;;;;;;;;11.37;56.34;100211.92;1719421;110;25497;-92
2022/01/02 08:39:24;;;;;;;12.85;8.98;;;;;;;11.42;56.33;100217.24;1700851;113;25958;-91
2022/01/02 08:43:35;;;;;;;;;;;;;;;;;;;;;
2022/01/02 08:47:45;;;;;;;14.03;9.10;;;;;;;11.48;56.40;100196.47;1697710;114;25456;-93
2022/01/02 08:51:50;;;;;;;;;;;;;;;;;;;;;
2022/01/02 09:01:34;;;;;;;;;;;;;;;;;;;;;
2022/01/02 09:05:19;;;;;;;17.92;11.60;;;;;;;11.63;56.50;100182.34;1709371;108;26038;-85
2022/01/02 09:08:55;;;;;;;15.65;11.30;;;;;;;11.62;56.81;100171.89;1883036;104;25913;-85
2022/01/02 09:12:41;;;;;;;19.55;12.40;;;;;;;11.55;57.18;100149.60;1934833;99;25799;-85
2022/01/02 09:16:20;;;;;;;14.45;9.70;;;;;;;11.53;57.49;100149.12;1905554;102;25825;-91
2022/01/02 09:19:52;;;;;;;16.48;10.00;;;;;;;11.58;57.37;100137.03;1920344;101;25787;-91
2022/01/02 09:28:04;;;;;;;14.28;10.35;;;;;;;11.71;58.70;100123.70;1788174;108;25950;-92
2022/01/02 09:31:46;;;;;;;15.32;9.75;;;;;;;11.75;59.02;100121.61;1785766;109;25920;-89
2022/01/02 09:39:58;;;;;;;;;;;;;;;;;;;;;
2022/01/02 09:43:32;;;;;;;17.20;10.75;;;;;;;11.86;59.57;100086.53;1697285;114;25921;-90
2022/01/02 09:47:14;;;;;;;18.73;11.60;;;;;;;11.91;59.84;100082.23;1674932;115;25919;-86
2022/01/02 09:50:47;;;;;;;17.32;11.57;;;;;;;11.92;59.82;100077.05;1655509;118;25934;-84
2022/01/02 09:54:28;;;;;;;13.45;10.00;;;;;;;11.94;59.97;100054.41;1692425;115;25908;-89
2022/01/02 09:58:10;;;;;;;;;;;;;;;;;;;;;
2022/01/02 10:01:36;;;;;;;17.02;11.97;;;;;;;12.19;60.40;100038.62;1718859;112;25978;-88
2022/01/02 10:05:15;;;;;;;17.95;11.60;;;;;;;12.19;60.40;100011.19;1754481;111;25957;-88
2022/01/02 10:08:56;;;;;;;16.87;11.00;;;;;;;12.21;60.33;100007.27;1753904;111;26183;-86
2022/01/02 10:12:31;;;;;;;14.75;10.75;;;;;;;12.22;60.31;99989.44;1771211;109;25859;-88
2022/01/02 10:16:12;;;;;;;20.40;13.00;;;;;;;12.24;60.31;99967.66;1828326;106;25806;-88
2022/01/02 10:20:11;;;;;;;21.33;12.18;;;;;;;12.25;60.30;99954.16;1852960;105;25826;-89
2022/01/02 10:23:38;;;;;;;;;;;;;;;;;;;;;
2022/01/02 10:27:27;;;;;;;16.77;11.78;;;;;;;12.23;60.32;99916.27;1939258;100;25895;-92
2022/01/02 10:31:29;;;;;;;;;;;;;;;;;;;;;
2022/01/02 10:35:25;;;;;;;;;;;;;;;;;;;;;
2022/01/02 10:39:30;;;;;;;21.02;12.40;;;;;;;12.25;60.46;99904.10;1888347;104;26096;-84
2022/01/02 10:47:08;;;;;;;;;;;;;;;;;;;;;
2022/01/02 10:54:25;;;;;;;22.42;14.25;;;;;;;12.32;60.72;99879.30;1711948;113;25984;-84
2022/01/02 10:57:58;;;;;;;19.77;12.88;;;;;;;12.30;60.59;99884.53;1789919;107;25885;-82
2022/01/02 11:01:53;;;;;;;16.70;11.83;;;;;;;11.48;61.73;99869.75;1796384;108;25879;-84
2022/01/02 11:05:35;;;;;;;16.65;12.25;;;;;;;10.90;62.92;99858.58;1758444;110;26170;-82
2022/01/02 11:09:13;;;;;;;22.82;14.60;;;;;;;10.46;64.30;99844.86;1742722;112;26125;-82
2022/01/02 11:12:51;;;;;;;23.47;14.55;;;;;;;10.16;65.61;99846.12;1720513;111;25956;-79
2022/01/02 11:16:16;;;;;;;22.25;13.40;;;;;;;9.98;66.94;99840.15;1717907;115;25980;-77
2022/01/02 11:19:37;;;;;;;19.37;13.83;;;;;;;9.83;68.35;99829.05;1718430;113;25836;-78
2022/01/02 11:23:58;;;;;;;18.45;12.45;;;;;;;9.86;68.26;99817.40;1723536;114;26194;-78
2022/01/02 11:27:50;;;;;;;26.02;15.00;;;;;;;10.15;68.57;99820.90;1736033;110;25998;-79
2022/01/02 11:31:37;;;;;;;20.10;13.22;;;;;;;10.48;67.90;99808.86;1767096;110;25915;-79
2022/01/02 11:35:39;;;;;;;22.10;13.80;;;;;;;10.32;67.99;99793.84;1772964;106;25949;-79
2022/01/02 11:39:23;;;;;;;;;;;;;;;;;;;;;
2022/01/02 11:42:48;;;;;;;25.97;15.30;;;;;;;10.14;68.49;99782.27;1859383;103;25862;-79
2022/01/02 11:46:50;;;;;;;21.15;14.10;;;;;;;10.05;68.82;99772.98;1904484;103;25696;-82
2022/01/02 11:50:39;;;;;;;22.20;14.18;;;;;;;10.09;68.87;99766.10;1918704;102;25787;-79
2022/01/02 11:54:08;;;;;;;22.20;14.00;;;;;;;10.16;69.04;99754.95;1931892;102;26092;-79
2022/01/02 11:57:42;;;;;;;16.65;12.10;;;;;;;10.22;68.92;99758.05;1980214;98;26449;-79
2022/01/02 12:01:09;;;;;;;16.40;12.45;;;;;;;10.35;68.89;99749.17;2037201;93;25821;-77
2022/01/02 12:05:12;;;;;;;21.15;13.08;;;;;;;10.42;68.77;99755.34;2073468;93;25779;-78
2022/01/02 12:08:46;;;;;;;18.77;11.35;;;;;;;10.48;68.54;99752.83;2128952;92;32354;-81
2022/01/02 12:12:13;;;;;;;15.35;10.28;;;;;;;10.59;68.54;99747.76;2163178;88;25459;-84
2022/01/02 12:16:00;;;;;;;15.08;10.05;;;;;;;10.63;68.21;99727.39;2243126;87;25638;-75
2022/01/02 12:19:35;;;;;;;13.58;10.85;;;;;;;10.63;68.04;99729.99;2245938;87;26289;-76
2022/01/02 12:23:01;;;;;;;15.43;9.53;;;;;;;10.71;67.94;99707.95;2241971;87;25798;-79
2022/01/02 12:26:41;;;;;;;20.02;10.55;;;;;;;10.77;67.71;99685.88;2245501;87;25701;-75
2022/01/02 12:30:23;;;;;;;16.42;10.55;;;;;;;10.73;67.55;99681.05;2163083;89;25932;-80
2022/01/02 12:34:10;;;;;;;16.40;10.68;;;;;;;10.80;67.46;99684.58;2191157;85;25714;-83
2022/01/02 12:37:52;;;;;;;15.90;9.58;;;;;;;10.82;67.38;99673.75;2187680;88;25731;-82
2022/01/02 12:41:23;;;;;;;14.55;10.65;;;;;;;11.20;67.55;99665.44;2186462;88;25732;-84
2022/01/02 12:45:05;;;;;;;17.67;10.88;;;;;;;11.54;66.99;99658.78;2189275;90;25994;-83
2022/01/02 12:48:36;;;;;;;18.20;10.30;;;;;;;11.77;66.46;99658.96;2189211;90;25891;-83
2022/01/02 12:52:11;;;;;;;18.05;10.98;;;;;;;11.98;65.97;99663.08;2130887;91;25780;-83
2022/01/02 12:55:39;;;;;;;14.60;11.03;;;;;;;12.15;65.50;99655.34;2130926;91;25752;-85
2022/01/02 12:59:42;;;;;;;13.75;9.13;;;;;;;12.29;65.08;99639.29;2131623;91;26074;-83
2022/01/02 13:03:13;;;;;;;15.80;10.63;;;;;;;12.43;64.64;99625.41;2127859;91;25751;-80
2022/01/02 13:06:52;;;;;;;15.40;9.70;;;;;;;12.55;64.18;99618.03;2131001;91;25825;-82
2022/01/02 13:10:36;;;;;;;17.27;10.20;;;;;;;12.65;63.81;99618.50;2124605;92;25723;-81
2022/01/02 13:14:04;;;;;;;17.65;9.93;;;;;;;12.72;63.44;99607.18;2085601;93;26477;-79
2022/01/02 13:17:42;;;;;;;15.30;9.03;;;;;;;12.78;63.17;99595.87;2106207;92;25835;-77
2022/01/02 13:21:18;;;;;;;13.35;9.13;;;;;;;12.84;62.91;99606.34;2054598;94;26461;-80
2022/01/02 13:24:56;;;;;;;9.93;7.83;;;;;;;12.88;62.60;99606.78;2042618;90;25794;-80
2022/01/02 13:28:24;;;;;;;14.93;8.78;;;;;;;12.94;62.38;99612.91;2162596;90;25794;-80
2022/01/02 13:32:00;;;;;;;12.58;8.85;;;;;;;12.98;62.15;99609.86;2168968;90;25609;-86
2022/01/02 13:35:33;;;;;;;13.30;8.75;;;;;;;13.01;61.95;99613.79;2172440;91;25766;-81
2022/01/02 13:39:02;;;;;;;11.55;8.88;;;;;;;13.07;61.71;99612.49;2147671;92;25824;-81
2022/01/02 13:42:50;;;;;;;11.97;8.88;;;;;;;13.08;61.48;99611.61;2170805;91;25823;-81
2022/01/02 13:46:30;;;;;;;;;;;;;;;;;;;;;
2022/01/02 13:50:03;;;;;;;12.58;8.85;;;;;;;13.16;61.13;99604.66;2038486;96;25693;-81
2022/01/02 13:53:41;;;;;;;11.60;8.03;;;;;;;13.18;60.90;99605.52;1976733;98;25843;-81
2022/01/02 13:57:05;;;;;;;13.58;8.95;;;;;;;13.17;60.88;99596.37;1982856;99;25868;-83
2022/01/02 14:00:32;;;;;;;13.35;9.23;;;;;;;13.18;60.82;99577.16;1955534;100;25862;-85
2022/01/02 14:04:27;;;;;;;12.82;8.25;;;;;;;13.14;60.72;99573.68;1986088;96;55595;-82
2022/01/02 14:07:40;;;;;;;13.10;7.90;;;;;;;13.14;60.68;99574.98;2045702;95;26463;-80
2022/01/02 14:11:30;;;;;;;10.55;7.83;;;;;;;13.16;60.61;99585.44;2082640;93;25959;-80
2022/01/02 14:15:27;;;;;;;10.38;7.65;;;;;;;13.15;60.51;99577.16;2081711;94;25722;-81
2022/01/02 14:18:55;;;;;;;14.58;8.73;;;;;;;13.17;60.53;99574.98;2070442;94;26019;-81
2022/01/02 14:22:22;;;;;;;14.78;8.80;;;;;;;13.17;60.44;99574.13;2050881;96;25716;-83
2022/01/02 14:26:00;;;;;;;11.60;8.25;;;;;;;13.17;60.67;99569.75;2049930;95;25816;-83
2022/01/02 14:29:33;;;;;;;12.07;8.13;;;;;;;13.19;60.78;99559.27;2046653;90;26164;-86
2022/01/02 14:33:05;;;;;;;9.73;7.03;;;;;;;13.24;60.86;99553.65;2068843;95;25921;-86
2022/01/02 14:36:32;;;;;;;13.35;8.93;;;;;;;13.27;61.09;99551.47;2065784;95;25831;-86
2022/01/02 14:39:53;;;;;;;12.75;7.70;;;;;;;13.30;61.10;99548.41;2068768;95;25844;-84
2022/01/02 14:43:40;;;;;;;12.35;8.13;;;;;;;13.32;61.11;99528.77;2062806;95;25788;-86
2022/01/02 14:47:07;;;;;;;11.73;6.80;;;;;;;13.35;61.12;99518.30;2029162;95;25816;-85
2022/01/02 14:50:57;;;;;;;;;;;;;;;;;;;;;
2022/01/02 14:54:43;;;;;;;;;;;;;;;;;;;;;
2022/01/02 14:57:58;;;;;;;10.45;7.00;;;;;;;13.41;60.80;99506.06;2193578;89;25898;-84
2022/01/02 15:01:24;;;;;;;17.62;7.20;;;;;;;13.45;60.89;99500.39;2190726;90;25981;-86
2022/01/02 15:04:55;;;;;;;11.75;7.05;;;;;;;13.45;60.89;99500.39;2191551;90;25709;-84
2022/01/02 15:08:48;;;;;;;;;;;;;;;;;;;;;
2022/01/02 15:12:14;;;;;;;15.35;7.22;;;;;;;13.49;60.98;99484.23;2200670;88;25779;-84
2022/01/02 15:15:39;;;;;;;12.23;7.85;;;;;;;13.48;60.90;99479.44;2201634;89;25893;-84
2022/01/02 15:19:18;;;;;;;13.25;7.47;;;;;;;13.48;60.80;99489.91;2052499;94;25761;-82
2022/01/02 15:22:46;;;;;;;8.08;7.10;;;;;;;13.49;60.81;99486.41;2035000;93;25889;-86
2022/01/02 15:26:10;;;;;;;13.13;7.78;;;;;;;13.50;60.80;99474.18;2080624;95;25743;-84
2022/01/02 15:29:44;;;;;;;8.35;7.17;;;;;;;13.50;60.75;99465.02;2080194;93;26369;-85
2022/01/02 15:33:12;;;;;;;12.75;7.78;;;;;;;13.50;60.79;99468.53;2113459;92;25740;-86
2022/01/02 15:36:56;;;;;;;11.33;7.70;;;;;;;13.51;60.77;99473.33;2113536;92;25972;-82
2022/01/02 15:40:35;;;;;;;13.00;7.83;;;;;;;13.50;60.69;99469.84;2090013;93;25784;-84
2022/01/02 15:43:58;;;;;;;11.70;7.92;;;;;;;13.50;60.69;99459.78;2089478;93;25603;-84
2022/01/02 15:47:40;;;;;;;10.98;8.00;;;;;;;13.46;60.77;99445.42;2088721;93;25800;-84
2022/01/02 15:51:15;;;;;;;14.05;8.00;;;;;;;13.46;60.77;99445.42;2089875;94;25779;-84
2022/01/02 15:55:06;;;;;;;12.82;8.35;;;;;;;13.50;60.77;99438.42;2089403;93;25896;-85
2022/01/02 15:58:34;;;;;;;17.17;8.85;;;;;;;13.48;60.71;99437.98;1990326;98;25899;-84
2022/01/02 16:02:11;;;;;;;13.85;8.15;;;;;;;13.46;60.68;99436.66;2001512;96;26022;-84
2022/01/02 16:05:53;;;;;;;7.62;6.62;;;;;;;13.48;60.80;99441.47;2006061;95;25863;-84
2022/01/02 16:09:38;;;;;;;11.68;7.75;;;;;;;13.49;60.80;99427.94;2023904;97;25706;-84
2022/01/02 16:13:17;;;;;;;9.88;7.42;;;;;;;13.49;60.80;99427.94;1998108;97;25944;-84
2022/01/02 16:16:55;;;;;;;10.03;7.28;;;;;;;13.50;60.87;99420.50;2020169;96;25831;-85
2022/01/02 16:20:41;;;;;;;14.43;7.35;;;;;;;13.48;60.92;99416.59;2001551;95;25351;-85
2022/01/02 16:24:08;;;;;;;13.05;8.65;;;;;;;13.53;60.90;99412.64;1978896;97;25871;-85
2022/01/02 16:27:41;;;;;;;14.10;7.67;;;;;;;13.51;60.84;99406.56;1975449;98;25789;-85
2022/01/02 16:31:23;;;;;;;14.58;7.62;;;;;;;13.50;60.80;99396.94;1971958;98;25817;-86
2022/01/02 16:35:06;;;;;;;10.70;7.15;;;;;;;13.50;60.99;99393.91;1974587;99;26095;-85
2022/01/02 16:38:45;;;;;;;8.18;6.85;;;;;;;13.50;60.99;99393.91;1911939;101;25991;-85
2022/01/02 16:42:13;;;;;;;13.60;7.47;;;;;;;13.50;60.80;99379.51;1925788;99;25842;-85
2022/01/02 16:45:55;;;;;;;;;;;;;;;;;;;;;
2022/01/02 16:49:37;;;;;;;;;;;;;;;;;;;;;
2022/01/02 16:53:09;;;;;;;19.82;9.38;;;;;;;13.51;60.87;99372.52;1909031;102;25735;-83
2022/01/02 16:56:55;;;;;;;25.05;9.88;;;;;;;13.49;60.93;99351.56;1944806;99;25620;-85
2022/01/02 17:05:34;;;;;;;;;;;;;;;;;;;;;
2022/01/02 17:09:14;;;;;;;15.03;7.72;;;;;;;13.48;61.06;99344.59;1957283;99;26180;-82
2022/01/02 17:13:05;;;;;;;14.25;8.08;;;;;;;13.48;61.00;99328.88;1935602;101;25944;-89
2022/01/02 17:16:45;;;;;;;11.80;7.85;;;;;;;13.48;61.23;99330.64;1983445;99;25848;-90
2022/01/02 17:20:18;;;;;;;12.13;6.97;;;;;;;13.47;61.40;99327.16;1980814;94;25770;-90
2022/01/02 17:23:56;;;;;;;13.25;7.78;;;;;;;13.51;61.41;99340.66;1981357;98;25748;-87
2022/01/02 17:27:36;;;;;;;13.25;7.95;;;;;;;13.53;61.42;99327.09;2036094;96;25820;-88
2022/01/02 17:31:16;;;;;;;11.80;7.37;;;;;;;13.51;61.46;99323.63;2015465;96;25772;-87
2022/01/02 17:38:27;;;;;;;;;;;;;;;;;;;;;
2022/01/02 17:42:11;;;;;;;11.85;7.70;;;;;;;13.59;61.92;99303.50;1998908;94;25737;-88
2022/01/02 17:45:34;;;;;;;10.25;6.80;;;;;;;13.64;61.91;99298.26;1957765;100;25835;-89
2022/01/02 17:49:09;;;;;;;15.20;7.78;;;;;;;13.65;62.11;99278.59;1968467;100;25924;-91
2022/01/02 17:52:48;;;;;;;8.68;6.53;;;;;;;13.68;62.13;99261.55;1971659;100;25867;-88
2022/01/02 17:56:26;;;;;;;10.53;6.92;;;;;;;13.67;62.17;99258.95;1972417;100;26079;-91
2022/01/02 18:00:16;;;;;;;;;;;;;;;;;;;;;
2022/01/02 18:03:51;;;;;;;9.85;7.12;;;;;;;13.65;62.31;99249.78;1976929;95;25962;-92
2022/01/02 18:07:33;;;;;;;12.78;9.30;;;;;;;13.66;62.35;99249.34;2065856;94;25770;-92
2022/01/02 18:11:32;;;;;;;14.00;7.53;;;;;;;13.66;62.40;99245.41;2058372;95;25828;-89
2022/01/02 18:15:03;;;;;;;11.15;6.35;;;;;;;13.65;62.52;99252.41;2106808;92;26322;-87
2022/01/02 18:18:33;;;;;;;9.73;5.70;;;;;;;13.53;62.65;99214.51;2137734;92;25820;-88
2022/01/02 18:22:05;;;;;;;8.75;5.42;;;;;;;13.65;62.75;99228.84;2113715;92;26108;-90
2022/01/02 18:25:41;;;;;;;8.05;5.40;;;;;;;13.67;62.76;99219.23;2137015;92;26117;-91
2022/01/02 18:29:28;;;;;;;7.72;5.35;;;;;;;13.66;62.89;99223.15;2064880;92;25976;-92
2022/01/02 18:32:58;;;;;;;8.60;5.75;;;;;;;13.64;62.92;99227.55;2127511;90;25936;-88
2022/01/02 18:36:39;;;;;;;;;;;;;;;;;;;;;
2022/01/02 18:40:07;;;;;;;7.72;5.30;;;;;;;13.60;63.24;99212.71;2150756;91;26219;-90
2022/01/02 18:43:44;;;;;;;7.47;5.42;;;;;;;13.64;63.29;99190.89;2154196;90;25755;-87
2022/01/02 18:47:16;;;;;;;5.05;4.25;;;;;;;13.65;63.27;99167.73;2172576;90;25763;-88
2022/01/02 18:54:37;;;;;;;11.60;4.85;;;;;;;13.86;64.69;99154.44;2119298;93;25909;-93
2022/01/02 19:01:57;;;;;;;10.23;5.17;;;;;;;13.96;63.45;99132.95;2047520;95;25960;-90
2022/01/02 19:05:29;;;;;;;6.67;5.30;;;;;;;13.96;63.45;99132.95;2049813;92;25885;-90
2022/01/02 19:09:08;;;;;;;11.10;4.70;;;;;;;14.04;63.31;99139.41;2042318;96;25801;-90
2022/01/02 19:12:52;;;;;;;;;;;;;;;;;;;;;
2022/01/02 19:16:37;;;;;;;;;;;;;;;;;;;;;
2022/01/02 19:20:06;;;;;;;5.87;4.47;;;;;;;14.01;63.06;99095.80;2045154;95;26212;-90
2022/01/02 19:23:43;;;;;;;7.53;4.60;;;;;;;14.01;63.06;99095.80;2045894;95;25714;-91
2022/01/02 19:27:26;;;;;;;8.38;5.45;;;;;;;14.01;62.93;99096.24;2016150;97;26104;-94
2022/01/02 19:31:31;;;;;;;;;;;;;;;;;;;;;
2022/01/02 19:35:58;;;;;;;;;;;;;;;;;;;;;
2022/01/02 19:44:07;;;;;;;;;;;;;;;;;;;;;
2022/01/02 20:18:36;;;;;;;;;;;;;;;;;;;;;
2022/01/02 20:22:59;;;;;;;;;;;;;;;;;;;;;
2022/01/02 20:31:43;;;;;;;7.20;5.33;;;;;;;14.11;62.13;99028.43;1719900;114;25934;-92
2022/01/02 20:35:35;;;;;;;;;;;;;;;;;;;;;
2022/01/02 20:39:14;;;;;;;8.18;6.17;;;;;;;14.11;62.23;99031.91;1715400;114;25909;-86
2022/01/02 20:42:39;;;;;;;7.00;5.80;;;;;;;14.11;62.15;99026.67;1722997;113;26384;-86
2022/01/02 20:46:42;;;;;;;9.55;5.70;;;;;;;13.99;62.11;99012.40;1713971;113;26135;-91
2022/01/02 20:50:21;;;;;;;;;;;;;;;;;;;;;
2022/01/02 20:53:54;;;;;;;;;;;;;;;;;;;;;
2022/01/02 20:57:32;;;;;;;8.90;5.50;;;;;;;14.00;61.95;98983.98;1736149;110;26290;-87
2022/01/02 21:01:21;;;;;;;7.20;5.90;;;;;;;14.00;61.95;98983.98;1765348;108;26448;-87
2022/01/02 21:05:12;;;;;;;;;;;;;;;;;;;;;
2022/01/02 21:08:51;;;;;;;8.68;5.58;;;;;;;13.99;61.66;98962.61;1778382;110;26584;-87
2022/01/02 21:12:23;;;;;;;;;;;;;;;;;;;;;
2022/01/02 21:20:22;;;;;;;;;;;;;;;;;;;;;
2022/01/02 21:27:28;;;;;;;9.83;7.03;;;;;;;14.15;61.57;98957.60;1800579;109;26357;-88
2022/01/02 21:31:23;;;;;;;;;;;;;;;;;;;;;
2022/01/02 21:40:50;;;;;;;8.10;5.80;;;;;;;14.14;61.41;98943.19;1780338;109;26177;-89
2022/01/02 21:44:51;;;;;;;;;;;;;;;;;;;;;
2022/01/02 21:48:36;;;;;;;5.70;4.83;;;;;;;14.13;61.28;98931.84;1834061;105;25828;-90
2022/01/02 21:52:45;;;;;;;;;;;;;;;;;;;;;
2022/01/02 21:56:15;;;;;;;7.35;5.47;;;;;;;14.10;61.18;98925.33;1835620;106;25878;-90
2022/01/02 21:59:46;;;;;;;;;;;;;;;;;;;;;
2022/01/02 22:03:21;;;;;;;7.22;5.03;;;;;;;14.13;61.11;98923.12;1814546;107;25727;-91
2022/01/02 22:07:12;;;;;;;7.25;5.53;;;;;;;14.13;61.06;98926.61;1918762;102;25929;-86
2022/01/02 22:11:06;;;;;;;;;;;;;;;;;;;;;
2022/01/02 22:14:42;;;;;;;5.17;4.70;;;;;;;14.15;60.95;98925.30;1920290;102;25726;-94
2022/01/02 22:18:35;;;;;;;;;;;;;;;;;;;;;
2022/01/02 22:26:50;;;;;;;;;;;;;;;;;;;;;
2022/01/02 22:30:29;;;;;;;7.25;5.50;;;;;;;14.16;60.82;98930.95;1863971;103;25852;-90
2022/01/02 22:34:25;;;;;;;10.65;4.85;;;;;;;14.07;60.73;98920.17;1799543;106;26250;-89
2022/01/02 22:38:17;;;;;;;6.08;5.00;;;;;;;14.04;61.23;98908.83;1796042;109;26093;-88
2022/01/02 23:02:23;;;;;;;5.12;4.47;;;;;;;14.22;60.62;98932.17;1771779;108;26197;-90
2022/01/02 23:07:43;;;;;;;5.17;3.77;;;;;;;14.20;60.60;98922.59;1745718;111;25895;-92
2022/01/02 23:13:34;;;;;;;;;;;;;;;;;;;;;
2022/01/02 23:32:11;;;;;;;;;;;;;;;;;;;;;
2022/01/02 23:40:38;;;;;;;;;;;;;;;;;;;;;
2022/01/02 23:49:10;;;;;;;;;;;;;;;;;;;;;
2022/01/02 23:52:44;;;;;;;;;;;;;;;;;;;;;
2022/01/02 23:57:24;;;;;;;6.70;4.03;;;;;;;14.31;59.33;98888.80;1836994;102;26184;-91
